OAL792 LGPA-LGNX
Flight info
| Callsign | OAL792 |
|---|---|
| Flight time | N/A |
| Altitude | 5000 |
| Route | RAPOS DCT RIPLI |
| Aircraft | PC12/L-SDFGRWY/S |
Departure
| Time | 2026-05-06 22:24 |
|---|---|
| Airport | Paros National Airport (LGPA) |
Arrival
| Time | N/A |
|---|---|
| Airport | Naxos Island National Airport (LGNX) |
| Time | Latitude | Longitude | Altitude | Speed | Heading |
|---|---|---|---|---|---|
| 2026-05-06 22:13 | 37.01935 | 25.11548 | 137 ft | 0 kts | 164° |
| 2026-05-06 22:18 | 37.01933 | 25.11573 | 137 ft | 9 kts | 10° |
| 2026-05-06 22:18 | 37.02008 | 25.11509 | 137 ft | 17 kts | 335° |
| 2026-05-06 22:18 | 37.02108 | 25.11390 | 137 ft | 24 kts | 312° |
| 2026-05-06 22:19 | 37.02152 | 25.11322 | 137 ft | 6 kts | 307° |
| 2026-05-06 22:19 | 37.02247 | 25.11275 | 137 ft | 24 kts | 349° |
| 2026-05-06 22:19 | 37.02455 | 25.11225 | 138 ft | 32 kts | 345° |
| 2026-05-06 22:19 | 37.02599 | 25.11192 | 137 ft | 24 kts | 0° |
| 2026-05-06 22:20 | 37.02671 | 25.11178 | 137 ft | 7 kts | 191° |
| 2026-05-06 22:20 | 37.02657 | 25.11179 | 137 ft | 0 kts | 172° |
| 2026-05-06 22:22 | 37.02653 | 25.11180 | 137 ft | 7 kts | 171° |
| 2026-05-06 22:23 | 37.02433 | 25.11231 | 138 ft | 59 kts | 168° |
| 2026-05-06 22:23 | 37.01885 | 25.11356 | 142 ft | 95 kts | 170° |
| 2026-05-06 22:23 | 37.01200 | 25.11530 | 324 ft | 105 kts | 167° |
| 2026-05-06 22:23 | 37.00462 | 25.11724 | 655 ft | 111 kts | 171° |
| 2026-05-06 22:24 | 36.99706 | 25.11853 | 1103 ft | 104 kts | 174° |
| 2026-05-06 22:24 | 36.98995 | 25.12037 | 1455 ft | 105 kts | 172° |
| 2026-05-06 22:24 | 36.98416 | 25.12527 | 1747 ft | 109 kts | 108° |
| 2026-05-06 22:24 | 36.98628 | 25.13374 | 1990 ft | 108 kts | 36° |
| 2026-05-06 22:25 | 36.99266 | 25.13964 | 2145 ft | 123 kts | 21° |
| 2026-05-06 22:25 | 37.00160 | 25.13907 | 2386 ft | 142 kts | 329° |
| 2026-05-06 22:25 | 37.01009 | 25.13281 | 2872 ft | 141 kts | 326° |
| 2026-05-06 22:25 | 37.01843 | 25.12632 | 3366 ft | 142 kts | 326° |
| 2026-05-06 22:26 | 37.02681 | 25.11976 | 3814 ft | 143 kts | 326° |
| 2026-05-06 22:26 | 37.03440 | 25.11185 | 4257 ft | 143 kts | 313° |
| 2026-05-06 22:26 | 37.04125 | 25.10278 | 4743 ft | 144 kts | 313° |
| 2026-05-06 22:26 | 37.04823 | 25.09332 | 4996 ft | 158 kts | 313° |
| 2026-05-06 22:27 | 37.05627 | 25.08238 | 5015 ft | 182 kts | 313° |
| 2026-05-06 22:27 | 37.06510 | 25.07040 | 5000 ft | 190 kts | 313° |
| 2026-05-06 22:27 | 37.07238 | 25.05671 | 5001 ft | 193 kts | 286° |
| 2026-05-06 22:27 | 37.07152 | 25.04025 | 5010 ft | 199 kts | 249° |
| 2026-05-06 22:28 | 37.06427 | 25.02532 | 5012 ft | 203 kts | 237° |
| 2026-05-06 22:28 | 37.05596 | 25.01092 | 5009 ft | 205 kts | 234° |
| 2026-05-06 22:28 | 37.04443 | 25.00052 | 5010 ft | 211 kts | 199° |
| 2026-05-06 22:28 | 37.02975 | 24.99924 | 5007 ft | 214 kts | 178° |
| 2026-05-06 22:29 | 37.01485 | 25.00074 | 5008 ft | 216 kts | 176° |
| 2026-05-06 22:29 | 36.99987 | 25.00249 | 5009 ft | 217 kts | 176° |
| 2026-05-06 22:29 | 36.98480 | 25.00428 | 5009 ft | 218 kts | 176° |
| 2026-05-06 22:29 | 36.96968 | 25.00608 | 5007 ft | 219 kts | 176° |
| 2026-05-06 22:30 | 36.95431 | 25.00788 | 5006 ft | 224 kts | 175° |
| 2026-05-06 22:30 | 36.93879 | 25.00971 | 4994 ft | 223 kts | 176° |
| 2026-05-06 22:30 | 36.92334 | 25.01155 | 4997 ft | 223 kts | 176° |
| 2026-05-06 22:30 | 36.90815 | 25.01335 | 5000 ft | 222 kts | 176° |
| 2026-05-06 22:31 | 36.89277 | 25.01516 | 4999 ft | 222 kts | 176° |
| 2026-05-06 22:31 | 36.87742 | 25.01699 | 4992 ft | 222 kts | 176° |
| 2026-05-06 22:31 | 36.86254 | 25.02112 | 4993 ft | 221 kts | 153° |
| 2026-05-06 22:31 | 36.85192 | 25.03424 | 4982 ft | 221 kts | 118° |
| 2026-05-06 22:32 | 36.84814 | 25.05317 | 4788 ft | 224 kts | 93° |
| 2026-05-06 22:32 | 36.84742 | 25.07269 | 4587 ft | 227 kts | 90° |
| 2026-05-06 22:32 | 36.84701 | 25.09245 | 4386 ft | 228 kts | 90° |
| 2026-05-06 22:32 | 36.84664 | 25.11201 | 4089 ft | 218 kts | 90° |
| 2026-05-06 22:33 | 36.84664 | 25.13028 | 3735 ft | 203 kts | 79° |
| 2026-05-06 22:33 | 36.85210 | 25.14541 | 3406 ft | 189 kts | 52° |
| 2026-05-06 22:33 | 36.85972 | 25.15838 | 3056 ft | 183 kts | 50° |
| 2026-05-06 22:33 | 36.86800 | 25.16987 | 2714 ft | 173 kts | 30° |
| 2026-05-06 22:34 | 36.87836 | 25.17687 | 2370 ft | 168 kts | 22° |
| 2026-05-06 22:34 | 36.88659 | 25.18184 | 2097 ft | 167 kts | 22° |
| 2026-05-06 22:34 | 36.89709 | 25.18809 | 1742 ft | 166 kts | 22° |
| 2026-05-06 22:34 | 36.90762 | 25.19151 | 1616 ft | 148 kts | 347° |
| 2026-05-06 22:35 | 36.91577 | 25.18489 | 1613 ft | 140 kts | 306° |
| 2026-05-06 22:35 | 36.92138 | 25.17515 | 1608 ft | 136 kts | 297° |
| 2026-05-06 22:35 | 36.92471 | 25.16444 | 1599 ft | 133 kts | 306° |
| 2026-05-06 22:35 | 36.93174 | 25.15716 | 1605 ft | 134 kts | 322° |
| 2026-05-06 22:36 | 36.93943 | 25.15025 | 1609 ft | 135 kts | 322° |
| 2026-05-06 22:36 | 36.94694 | 25.14349 | 1611 ft | 135 kts | 322° |
| 2026-05-06 22:36 | 36.95459 | 25.13660 | 1606 ft | 136 kts | 322° |
| 2026-05-06 22:36 | 36.96224 | 25.12970 | 1608 ft | 136 kts | 322° |
| 2026-05-06 22:37 | 36.96988 | 25.12280 | 1610 ft | 136 kts | 321° |
| 2026-05-06 22:37 | 36.97785 | 25.11559 | 1612 ft | 143 kts | 322° |
| 2026-05-06 22:37 | 36.98617 | 25.10912 | 1594 ft | 141 kts | 343° |
| 2026-05-06 22:37 | 36.99566 | 25.11126 | 1599 ft | 144 kts | 31° |
| 2026-05-06 22:38 | 37.00185 | 25.12109 | 1622 ft | 146 kts | 58° |
| 2026-05-06 22:38 | 37.00318 | 25.13376 | 1609 ft | 155 kts | 107° |
| 2026-05-06 22:38 | 36.99738 | 25.14485 | 1609 ft | 151 kts | 131° |
| 2026-05-06 22:38 | 36.98978 | 25.15337 | 1593 ft | 145 kts | 159° |
| 2026-05-06 22:39 | 36.98050 | 25.15271 | 1589 ft | 129 kts | 213° |
| 2026-05-06 22:39 | 36.97377 | 25.14613 | 1586 ft | 119 kts | 222° |
| 2026-05-06 22:39 | 36.96757 | 25.13967 | 1590 ft | 112 kts | 227° |
| 2026-05-06 22:39 | 36.96605 | 25.13114 | 1587 ft | 102 kts | 294° |
| 2026-05-06 22:40 | 36.97187 | 25.12761 | 1532 ft | 105 kts | 10° |
| 2026-05-06 22:40 | 36.97878 | 25.12724 | 1302 ft | 98 kts | 325° |
| 2026-05-06 22:40 | 36.98431 | 25.12467 | 1201 ft | 87 kts | 340° |
| 2026-05-06 22:40 | 36.98995 | 25.12187 | 1165 ft | 86 kts | 337° |
| 2026-05-06 22:41 | 37.00201 | 25.11847 | 715 ft | 94 kts | 338° |
| 2026-05-06 22:41 | 37.00861 | 25.11639 | 380 ft | 100 kts | 342° |
| 2026-05-06 22:41 | 37.01504 | 25.11455 | 175 ft | 95 kts | 354° |
| 2026-05-06 22:42 | 37.02098 | 25.11299 | 258 ft | 88 kts | 348° |
| 2026-05-06 22:42 | 37.02731 | 25.11100 | 500 ft | 93 kts | 340° |
| 2026-05-06 22:42 | 37.02922 | 25.10447 | 644 ft | 111 kts | 227° |
| 2026-05-06 22:42 | 37.02332 | 25.10062 | 1216 ft | 91 kts | 197° |
| 2026-05-06 22:43 | 37.01621 | 25.09916 | 1293 ft | 108 kts | 192° |
| 2026-05-06 22:43 | 37.00919 | 25.09685 | 1365 ft | 104 kts | 201° |
| 2026-05-06 22:43 | 37.00223 | 25.09423 | 1361 ft | 104 kts | 191° |
| 2026-05-06 22:43 | 36.99620 | 25.09757 | 986 ft | 121 kts | 91° |
| 2026-05-06 22:44 | 37.00158 | 25.10421 | 892 ft | 101 kts | 40° |
| 2026-05-06 22:44 | 37.00575 | 25.11013 | 742 ft | 89 kts | 47° |
| 2026-05-06 22:44 | 37.01102 | 25.11544 | 362 ft | 96 kts | 359° |
| 2026-05-06 22:44 | 37.01753 | 25.11392 | 142 ft | 91 kts | 348° |
| 2026-05-06 22:45 | 37.02285 | 25.11260 | 137 ft | 53 kts | 349° |
| 2026-05-06 22:45 | 37.02454 | 25.11222 | 138 ft | 4 kts | 99° |
| 2026-05-06 22:45 | 37.02414 | 25.11236 | 138 ft | 10 kts | 171° |
| 2026-05-06 22:45 | 37.02316 | 25.11256 | 137 ft | 18 kts | 169° |
| 2026-05-06 22:46 | 37.02194 | 25.11296 | 137 ft | 16 kts | 163° |
| 2026-05-06 22:46 | 37.02110 | 25.11407 | 137 ft | 20 kts | 126° |
| 2026-05-06 22:46 | 37.02088 | 25.11532 | 137 ft | 0 kts | 92° |